FR-0244 weather

Societe des Eaux Minerales D'Evian Heliport
Amphion, Auvergne-Rhône-Alpes, France

Public forecast

Using degrees Celsius for public forecast. Weather courtesy of forecast.io.

Closest aviation weather report (METAR) to Societe des Eaux Minerales D'Evian Heliport

Closest report is Geneva Cointrin International Airport, 19.1 nm (35.3 km) WSW. Retrieved 2020/08/07 12:20 UTC (0 seconds ago):

LSGG 071220Z VRB02KT CAVOK 27/15 Q1020 NOSIG

Closest aviation forecast (TAF) to Societe des Eaux Minerales D'Evian Heliport

Closest forecast is Geneva Cointrin International Airport, 19.1 nm (35.3 km) WSW. Retrieved 2020/08/07 12:33 UTC (0 seconds ago):

TAF TAF LSGG 071125Z 0712/0818 06006KT CAVOK TX30/0715Z TN15/0804Z TX32/0815Z